Time;durP1;ratioP1;P1;durP2;ratioP2;P2;SDS_P1;SDS_P2;PMS_P1;PMS_P2;Temp;Humidity;BMP_temperature;BMP_pressure;BME280_temperature;BME280_humidity;BME280_pressure;Samples;Min_cycle;Max_cycle;Signal;HPM_P1;HPM_P2
2023/12/11 00:00:46;;;;;;;42.15;6.63;;;;;;;7.59;100.00;100010.78;5098646;28;20095;-79
2023/12/11 00:03:11;;;;;;;49.17;6.80;;;;;;;7.56;100.00;100003.06;5094877;28;20455;-80
2023/12/11 00:05:39;;;;;;;44.58;6.18;;;;;;;7.55;100.00;100003.94;5094788;28;20031;-79
2023/12/11 00:08:05;;;;;;;39.60;6.25;;;;;;;7.54;100.00;99998.81;5094074;28;20031;-79
2023/12/11 00:10:31;;;;;;;46.08;6.75;;;;;;;7.51;100.00;100002.31;5095378;28;20032;-79
2023/12/11 00:12:56;;;;;;;40.25;7.57;;;;;;;7.50;100.00;100008.41;5094706;28;20038;-79
2023/12/11 00:15:22;;;;;;;33.42;6.93;;;;;;;7.46;100.00;100001.59;5094264;28;20063;-79
2023/12/11 00:17:47;;;;;;;44.63;6.53;;;;;;;7.49;100.00;100011.91;5099817;28;20020;-80
2023/12/11 00:20:12;;;;;;;40.88;7.25;;;;;;;7.44;100.00;99998.19;5097893;28;20487;-79
2023/12/11 00:22:38;;;;;;;43.08;7.15;;;;;;;7.59;100.00;100009.94;5093799;28;20027;-80
2023/12/11 00:25:04;;;;;;;39.60;6.80;;;;;;;7.62;100.00;100012.44;5094920;28;20098;-80
2023/12/11 00:27:30;;;;;;;41.28;7.63;;;;;;;7.64;100.00;100008.91;5094568;28;20387;-80
2023/12/11 00:29:55;;;;;;;40.30;6.43;;;;;;;7.65;100.00;100010.63;5093973;28;20117;-80
2023/12/11 00:32:20;;;;;;;38.75;6.25;;;;;;;7.67;100.00;100008.00;5094524;28;20028;-80
2023/12/11 00:34:45;;;;;;;42.13;7.45;;;;;;;7.65;100.00;100000.25;5093609;28;20123;-79
2023/12/11 00:37:11;;;;;;;51.97;7.45;;;;;;;7.66;100.00;100001.94;5093887;28;20107;-79
2023/12/11 00:39:36;;;;;;;41.63;7.32;;;;;;;7.67;100.00;100002.81;5092938;28;20032;-80
2023/12/11 00:42:02;;;;;;;41.00;7.38;;;;;;;7.68;100.00;99999.31;5097235;28;20102;-80
2023/12/11 00:44:27;;;;;;;47.47;6.35;;;;;;;7.65;100.00;100001.97;5093807;28;20070;-80
2023/12/11 00:46:52;;;;;;;38.83;6.75;;;;;;;7.69;100.00;100001.88;5100291;28;20028;-80
2023/12/11 00:49:18;;;;;;;42.97;6.88;;;;;;;7.75;100.00;100003.47;5092909;28;20051;-80
2023/12/11 00:51:43;;;;;;;40.45;7.72;;;;;;;7.84;100.00;99999.78;5092448;28;20077;-80
2023/12/11 00:54:09;;;;;;;44.58;7.72;;;;;;;7.88;100.00;99983.22;5093931;28;20040;-80
2023/12/11 00:56:34;;;;;;;45.63;7.07;;;;;;;7.97;100.00;99988.19;5102097;28;20677;-80
2023/12/11 00:58:59;;;;;;;47.25;7.30;;;;;;;7.96;100.00;99989.09;5110193;28;20036;-80
2023/12/11 01:01:25;;;;;;;36.78;5.97;;;;;;;7.91;100.00;99970.19;5101932;28;20024;-80
2023/12/11 01:03:50;;;;;;;43.70;7.75;;;;;;;7.91;100.00;99973.66;5093092;28;20032;-80
2023/12/11 01:06:15;;;;;;;44.88;6.47;;;;;;;7.88;100.00;99970.25;5096137;28;20107;-80
2023/12/11 01:08:41;;;;;;;40.55;6.05;;;;;;;7.85;100.00;99971.22;5093577;28;20028;-80
2023/12/11 01:11:07;;;;;;;44.45;6.75;;;;;;;7.92;100.00;99971.91;5098756;28;20020;-80
2023/12/11 01:13:32;;;;;;;48.97;7.68;;;;;;;7.96;100.00;99974.34;5096372;28;20103;-80
2023/12/11 01:15:58;;;;;;;38.63;7.25;;;;;;;8.01;100.00;99968.19;5093127;28;20382;-80
2023/12/11 01:18:25;;;;;;;36.13;7.88;;;;;;;8.02;100.00;99967.31;5095628;28;20040;-80
2023/12/11 01:20:51;;;;;;;43.75;7.50;;;;;;;8.01;100.00;99950.91;5093526;28;20022;-80
2023/12/11 01:23:17;;;;;;;39.10;7.43;;;;;;;7.98;100.00;99953.56;5096591;28;20762;-80
2023/12/11 01:25:42;;;;;;;40.42;6.03;;;;;;;7.93;100.00;99955.44;5092822;28;20024;-80
2023/12/11 01:28:08;;;;;;;33.88;6.35;;;;;;;7.97;100.00;99955.28;5093722;28;20035;-80
2023/12/11 01:30:33;;;;;;;45.95;6.93;;;;;;;8.00;100.00;99946.56;5093212;28;20499;-80
2023/12/11 01:32:58;;;;;;;36.17;7.20;;;;;;;8.04;100.00;99945.59;5089424;28;20028;-80
2023/12/11 01:35:24;;;;;;;37.17;7.18;;;;;;;8.08;100.00;99944.63;5099333;28;20389;-80
2023/12/11 01:37:49;;;;;;;34.03;6.53;;;;;;;8.08;100.00;99929.06;5092952;28;20024;-80
2023/12/11 01:40:14;;;;;;;37.38;7.38;;;;;;;8.12;100.00;99928.06;5086928;28;20060;-80
2023/12/11 01:42:40;;;;;;;30.50;5.70;;;;;;;8.21;100.00;99937.34;5098646;28;20082;-80
2023/12/11 01:45:06;;;;;;;38.47;6.43;;;;;;;8.22;100.00;99933.88;5093047;28;20028;-80
2023/12/11 01:47:32;;;;;;;37.75;6.18;;;;;;;8.23;100.00;99930.34;5095895;28;20024;-80
2023/12/11 01:49:57;;;;;;;39.53;7.32;;;;;;;8.29;100.00;99925.00;5094588;28;20528;-80
2023/12/11 01:52:24;;;;;;;40.67;6.32;;;;;;;8.36;100.00;99920.47;5095245;28;20032;-80
2023/12/11 01:54:50;;;;;;;36.00;6.93;;;;;;;8.40;100.00;99916.91;5092019;28;20032;-80
2023/12/11 01:57:15;;;;;;;31.60;5.63;;;;;;;8.44;100.00;99909.00;5101341;28;20032;-80
2023/12/11 01:59:41;;;;;;;30.63;6.40;;;;;;;8.48;100.00;99911.53;5091486;28;20020;-80
2023/12/11 02:02:06;;;;;;;37.05;6.75;;;;;;;8.44;100.00;99897.78;5096608;28;20111;-80
2023/12/11 02:04:32;;;;;;;28.40;5.60;;;;;;;8.55;100.00;99906.09;5099438;28;20059;-80
2023/12/11 02:06:58;;;;;;;37.75;7.07;;;;;;;8.57;100.00;99893.91;5094595;28;20089;-80
2023/12/11 02:09:26;;;;;;;31.67;5.53;;;;;;;8.56;100.00;99891.34;5092984;28;20034;-80
2023/12/11 02:11:51;;;;;;;31.73;5.78;;;;;;;8.51;100.00;99899.28;5094636;28;20032;-81
2023/12/11 02:14:17;;;;;;;40.30;5.90;;;;;;;8.52;100.00;99895.78;5101459;28;20085;-80
2023/12/11 02:16:42;;;;;;;31.27;5.63;;;;;;;8.50;100.00;99884.59;5096439;28;20028;-80
2023/12/11 02:19:07;;;;;;;31.85;6.05;;;;;;;8.49;100.00;99888.06;5092788;28;20073;-80
2023/12/11 02:21:34;;;;;;;30.58;5.45;;;;;;;8.49;100.00;99900.22;5091963;28;20032;-80
2023/12/11 02:24:06;;;;;;;35.55;5.95;;;;;;;8.41;100.00;99887.47;5092175;28;20031;-80
2023/12/11 02:26:31;;;;;;;33.03;5.20;;;;;;;8.36;100.00;99894.50;5096210;28;20495;-80
2023/12/11 02:28:57;;;;;;;26.63;5.30;;;;;;;8.28;100.00;99884.34;5093066;28;20106;-80
2023/12/11 02:31:22;;;;;;;32.53;6.35;;;;;;;8.25;100.00;99887.03;5092371;28;20032;-80
2023/12/11 02:33:47;;;;;;;36.97;6.60;;;;;;;8.24;100.00;99881.88;5083189;28;20111;-80
2023/12/11 02:36:13;;;;;;;42.00;6.07;;;;;;;8.30;100.00;99890.34;5085805;28;20489;-80
2023/12/11 02:38:38;;;;;;;34.97;5.63;;;;;;;8.35;100.00;99872.03;5089345;28;20394;-80
2023/12/11 02:41:04;;;;;;;32.53;5.38;;;;;;;8.37;100.00;99875.41;5088151;28;20024;-80
2023/12/11 02:43:29;;;;;;;32.83;5.68;;;;;;;8.35;100.00;99874.63;5086703;28;20027;-80
2023/12/11 02:45:55;;;;;;;30.67;5.65;;;;;;;8.30;100.00;99864.38;5099030;28;20510;-80
2023/12/11 02:48:20;;;;;;;32.60;5.63;;;;;;;8.31;100.00;99865.25;5088173;28;20671;-80
2023/12/11 02:50:45;;;;;;;33.22;5.30;;;;;;;8.37;100.00;99859.84;5083635;28;20024;-80
2023/12/11 02:53:11;;;;;;;25.52;4.93;;;;;;;8.41;100.00;99861.50;5092604;28;20123;-80
2023/12/11 02:55:36;;;;;;;27.13;4.93;;;;;;;8.44;100.00;99845.81;5100318;28;20359;-80
2023/12/11 02:58:03;;;;;;;32.78;5.43;;;;;;;8.45;100.00;99839.72;5098657;28;20107;-80
2023/12/11 03:00:29;;;;;;;24.27;5.05;;;;;;;8.37;100.00;99833.88;5100424;28;20111;-80
2023/12/11 03:02:55;;;;;;;29.50;5.55;;;;;;;8.21;100.00;99831.75;5097979;28;20179;-80
2023/12/11 03:05:21;;;;;;;29.73;6.68;;;;;;;8.11;100.00;99832.06;5097731;28;20036;-80
2023/12/11 03:07:47;;;;;;;37.67;6.10;;;;;;;8.03;100.00;99832.28;5100957;28;20062;-80
2023/12/11 03:10:12;;;;;;;32.25;5.63;;;;;;;8.02;100.00;99833.19;5089584;28;20084;-80
2023/12/11 03:12:38;;;;;;;35.35;5.97;;;;;;;8.04;100.00;99821.00;5100398;28;20020;-80
2023/12/11 03:15:04;;;;;;;36.90;5.40;;;;;;;8.06;100.00;99819.22;5095038;28;20040;-80
2023/12/11 03:17:30;;;;;;;32.60;5.72;;;;;;;8.03;100.00;99814.13;5100255;28;20015;-80
2023/12/11 03:19:55;;;;;;;28.75;5.63;;;;;;;8.02;100.00;99801.19;5107188;28;20132;-80
2023/12/11 03:22:23;;;;;;;38.72;6.45;;;;;;;7.98;100.00;99803.03;5095870;28;21369;-80
2023/12/11 03:24:48;;;;;;;29.92;5.68;;;;;;;8.01;100.00;99802.94;5094789;28;20455;-80
2023/12/11 03:27:14;;;;;;;31.65;5.53;;;;;;;7.93;100.00;99807.50;5095668;28;20028;-80
2023/12/11 03:29:41;;;;;;;27.63;5.55;;;;;;;7.90;100.00;99802.41;5098781;28;20379;-80
2023/12/11 03:32:07;;;;;;;30.80;6.40;;;;;;;7.96;100.00;99818.63;5104004;28;20077;-80
2023/12/11 03:34:32;;;;;;;32.80;5.38;;;;;;;7.96;100.00;99821.22;5095584;28;20032;-80
2023/12/11 03:36:57;;;;;;;35.35;4.80;;;;;;;7.97;100.00;99812.53;5093872;28;20063;-80
2023/12/11 03:39:24;;;;;;;25.50;4.97;;;;;;;8.01;100.00;99807.25;5085315;28;20236;-80
2023/12/11 03:41:50;;;;;;;27.80;5.97;;;;;;;8.01;100.00;99802.94;5095592;28;20027;-80
2023/12/11 03:44:15;;;;;;;25.67;5.05;;;;;;;8.09;100.00;99813.94;5090092;28;20024;-80
2023/12/11 03:46:41;;;;;;;23.58;5.60;;;;;;;8.13;100.00;99819.88;5102603;28;20028;-80
2023/12/11 03:49:06;;;;;;;28.63;4.88;;;;;;;8.22;100.00;99819.63;5095591;28;20024;-80
2023/12/11 03:51:31;;;;;;;24.17;4.53;;;;;;;8.15;100.00;99815.50;5095352;28;20020;-80
2023/12/11 03:53:57;;;;;;;21.70;4.72;;;;;;;8.02;100.00;99815.03;5096622;28;20040;-80
2023/12/11 03:56:22;;;;;;;30.75;5.05;;;;;;;7.92;100.00;99811.84;5099917;28;20110;-80
2023/12/11 03:58:47;;;;;;;22.38;4.07;;;;;;;7.84;100.00;99812.94;5103286;28;20032;-80
2023/12/11 04:01:13;;;;;;;25.73;4.72;;;;;;;7.78;100.00;99813.13;5094445;28;20051;-80
2023/12/11 04:03:38;;;;;;;27.02;4.35;;;;;;;7.77;100.00;99809.66;5094882;28;20088;-80
2023/12/11 04:06:04;;;;;;;24.27;4.28;;;;;;;7.80;100.00;99804.41;5095132;28;20371;-80
2023/12/11 04:08:29;;;;;;;26.85;4.50;;;;;;;7.83;100.00;99800.88;5090949;28;22221;-80
2023/12/11 04:10:54;;;;;;;29.48;5.10;;;;;;;7.85;100.00;99812.06;5095505;28;20034;-80
2023/12/11 04:13:20;;;;;;;30.77;5.15;;;;;;;7.89;100.00;99822.31;5099510;28;20356;-80
2023/12/11 04:15:45;;;;;;;31.63;4.68;;;;;;;7.96;100.00;99810.00;5094622;28;20090;-80
2023/12/11 04:18:10;;;;;;;38.28;6.57;;;;;;;7.95;100.00;99803.97;5094973;28;20103;-80
2023/12/11 04:20:36;;;;;;;32.35;5.53;;;;;;;7.91;100.00;99802.38;5094020;28;20552;-80
2023/12/11 04:23:01;;;;;;;41.45;5.55;;;;;;;7.91;100.00;99819.66;5094615;28;20467;-80
2023/12/11 04:25:26;;;;;;;40.67;5.95;;;;;;;7.86;100.00;99813.75;5094781;28;20109;-80
2023/12/11 04:27:52;;;;;;;30.45;5.45;;;;;;;7.82;100.00;99799.19;5090881;28;20024;-80
2023/12/11 04:30:17;;;;;;;38.20;5.75;;;;;;;7.85;100.00;99793.91;5094766;28;20042;-81
2023/12/11 04:32:42;;;;;;;31.50;5.40;;;;;;;7.87;100.00;99792.09;5094027;28;20052;-80
2023/12/11 04:35:08;;;;;;;44.05;5.93;;;;;;;7.85;100.00;99792.16;5094093;28;20024;-81
2023/12/11 04:37:33;;;;;;;38.00;5.63;;;;;;;7.82;100.00;99788.81;5095875;28;20059;-80
2023/12/11 04:39:59;;;;;;;38.75;6.35;;;;;;;7.80;100.00;99786.25;5099707;28;20027;-80
2023/12/11 04:42:24;;;;;;;34.28;6.32;;;;;;;7.77;100.00;99770.75;5096523;28;20510;-80
2023/12/11 04:44:49;;;;;;;35.85;5.93;;;;;;;7.81;100.00;99787.94;5094148;28;20502;-80
2023/12/11 04:47:15;;;;;;;30.77;6.05;;;;;;;7.78;100.00;99780.22;5094096;28;20367;-80
2023/12/11 04:49:43;;;;;;;42.05;5.75;;;;;;;7.77;100.00;99793.25;5093288;28;20036;-80
2023/12/11 04:52:08;;;;;;;43.15;5.85;;;;;;;7.74;100.00;99792.44;5094282;28;20028;-80
2023/12/11 04:54:34;;;;;;;48.92;7.88;;;;;;;7.77;100.00;99777.69;5093683;28;20090;-80
2023/12/11 04:56:59;;;;;;;30.67;5.85;;;;;;;7.81;100.00;99794.88;5093338;28;20052;-80
2023/12/11 04:59:24;;;;;;;30.77;5.93;;;;;;;7.78;100.00;99784.56;5098282;28;20028;-80
2023/12/11 05:01:50;;;;;;;49.78;6.28;;;;;;;7.90;100.00;99786.81;5093418;28;20093;-80
2023/12/11 05:04:15;;;;;;;41.30;5.78;;;;;;;7.91;100.00;99780.72;5097964;28;20028;-80
2023/12/11 05:06:40;;;;;;;34.95;6.72;;;;;;;7.91;100.00;99784.19;5091554;28;20043;-80
2023/12/11 05:09:06;;;;;;;43.92;6.65;;;;;;;7.95;100.00;99775.41;5094417;28;20028;-80
2023/12/11 05:11:31;;;;;;;37.53;5.97;;;;;;;7.95;100.00;99787.53;5093564;28;20024;-81
2023/12/11 05:13:56;;;;;;;37.25;5.47;;;;;;;7.91;100.00;99794.56;5093642;28;20471;-80
2023/12/11 05:16:22;;;;;;;33.05;5.90;;;;;;;7.91;100.00;99802.38;5102104;28;20535;-81
2023/12/11 05:18:47;;;;;;;39.67;6.45;;;;;;;7.93;100.00;99794.53;5089204;28;20408;-81
2023/12/11 05:21:13;;;;;;;42.13;5.97;;;;;;;7.93;100.00;99802.31;5093870;28;20072;-81
2023/12/11 05:23:38;;;;;;;40.90;6.40;;;;;;;7.96;100.00;99791.84;5092390;28;20452;-81
2023/12/11 05:26:04;;;;;;;43.22;6.00;;;;;;;7.97;100.00;99796.97;5091934;28;20038;-81
2023/12/11 05:28:29;;;;;;;42.08;6.88;;;;;;;7.96;100.00;99789.25;5096626;28;20066;-81
2023/12/11 05:30:54;;;;;;;44.03;5.55;;;;;;;7.96;100.00;99789.25;5092308;28;20028;-80
2023/12/11 05:33:20;;;;;;;43.15;5.88;;;;;;;7.91;100.00;99799.78;5093295;28;20055;-81
2023/12/11 05:35:45;;;;;;;40.75;6.50;;;;;;;7.91;100.00;99786.78;5093260;28;20028;-80
2023/12/11 05:38:10;;;;;;;36.10;6.13;;;;;;;7.94;100.00;99798.81;5092621;28;20020;-80
2023/12/11 05:40:36;;;;;;;39.45;6.25;;;;;;;7.91;100.00;99788.50;5092891;28;20028;-81
2023/12/11 05:43:01;;;;;;;37.95;5.75;;;;;;;7.92;100.00;99790.22;5092643;28;20036;-81
2023/12/11 05:45:27;;;;;;;39.28;5.22;;;;;;;7.94;100.00;99791.03;5092739;28;20028;-80
2023/12/11 05:47:52;;;;;;;38.47;6.63;;;;;;;7.94;100.00;99794.47;5093066;28;20047;-81
2023/12/11 05:50:18;;;;;;;31.00;5.60;;;;;;;7.91;100.00;99786.78;5092881;28;20425;-80
2023/12/11 05:52:44;;;;;;;41.25;7.43;;;;;;;7.93;100.00;99774.59;5091901;28;20102;-80
2023/12/11 05:55:09;;;;;;;38.22;5.72;;;;;;;7.92;100.00;99782.44;5093292;28;20377;-80
2023/12/11 05:57:35;;;;;;;43.47;6.43;;;;;;;7.89;100.00;99775.59;5094920;28;20075;-80
2023/12/11 06:00:00;;;;;;;35.25;5.90;;;;;;;7.91;100.00;99785.91;5092122;28;20024;-80
2023/12/11 06:02:26;;;;;;;30.88;6.32;;;;;;;7.91;100.00;99783.31;5093029;28;20026;-80
2023/12/11 06:04:51;;;;;;;34.85;6.30;;;;;;;7.88;100.00;99771.31;5092245;28;20382;-80
2023/12/11 06:07:17;;;;;;;44.92;6.78;;;;;;;7.87;100.00;99781.72;5092087;28;20043;-80
2023/12/11 06:09:42;;;;;;;39.25;6.00;;;;;;;7.87;100.00;99776.53;5092364;28;20063;-80
2023/12/11 06:12:09;;;;;;;50.88;6.30;;;;;;;7.88;100.00;99778.22;5092125;28;20024;-80
2023/12/11 06:14:37;;;;;;;36.25;6.55;;;;;;;7.86;100.00;99773.09;5092485;28;20089;-80
2023/12/11 06:17:03;;;;;;;40.42;6.28;;;;;;;7.89;100.00;99779.94;5092669;28;20012;-80
2023/12/11 06:19:28;;;;;;;43.03;7.60;;;;;;;7.88;100.00;99780.81;5097216;28;20034;-80
2023/12/11 06:21:54;;;;;;;33.00;6.82;;;;;;;7.91;100.00;99796.28;5094393;28;20422;-80
2023/12/11 06:24:19;;;;;;;42.47;5.85;;;;;;;7.88;100.00;99781.69;5092669;28;20458;-80
2023/12/11 06:26:44;;;;;;;30.50;5.95;;;;;;;7.87;100.00;99781.72;5092153;28;20039;-80
2023/12/11 06:29:10;;;;;;;38.38;6.13;;;;;;;7.90;100.00;99792.00;5092138;28;20020;-80
2023/12/11 06:31:35;;;;;;;32.78;6.80;;;;;;;7.92;100.00;99798.88;5092608;28;20371;-80
2023/12/11 06:34:01;;;;;;;33.60;5.32;;;;;;;7.87;100.00;99776.53;5091598;28;20028;-80
2023/12/11 06:36:28;;;;;;;37.38;6.07;;;;;;;7.89;100.00;99792.91;5091212;28;20020;-80
2023/12/11 06:38:53;;;;;;;29.88;6.18;;;;;;;7.87;100.00;99792.94;5101611;28;20028;-80
2023/12/11 06:41:19;;;;;;;29.25;5.32;;;;;;;7.87;100.00;99795.53;5091453;28;20016;-81
2023/12/11 06:43:49;;;;;;;41.10;6.32;;;;;;;7.88;100.00;99794.66;5092759;28;20077;-80
2023/12/11 06:46:15;;;;;;;39.05;5.25;;;;;;;7.87;100.00;99794.69;5092293;28;20024;-80
2023/12/11 06:48:40;;;;;;;36.78;6.00;;;;;;;7.86;100.00;99793.00;5091412;28;20088;-80
2023/12/11 06:51:06;;;;;;;47.95;5.70;;;;;;;7.83;100.00;99799.13;5091843;28;20177;-80
2023/12/11 06:53:31;;;;;;;35.50;5.20;;;;;;;7.80;100.00;99800.97;5087325;28;20504;-80
2023/12/11 06:55:56;;;;;;;40.67;5.40;;;;;;;7.80;100.00;99809.59;5088358;28;20024;-80
2023/12/11 06:58:22;;;;;;;32.45;5.90;;;;;;;7.79;100.00;99789.75;5092868;28;20038;-80
2023/12/11 07:00:47;;;;;;;27.83;5.18;;;;;;;7.83;100.00;99800.88;5091591;28;20024;-80
2023/12/11 07:03:12;;;;;;;25.05;5.53;;;;;;;7.81;100.00;99807.84;5100215;28;20084;-80
2023/12/11 07:05:42;;;;;;;29.55;4.68;;;;;;;7.78;100.00;99808.78;5092102;28;20027;-80
2023/12/11 07:08:07;;;;;;;28.08;5.57;;;;;;;7.80;100.00;99808.75;5091944;28;20032;-80
2023/12/11 07:10:32;;;;;;;27.88;6.00;;;;;;;7.77;100.00;99829.59;5091462;28;20494;-80
2023/12/11 07:12:58;;;;;;;27.48;4.90;;;;;;;7.74;100.00;99818.38;5091593;28;20032;-80
2023/12/11 07:15:23;;;;;;;30.15;5.97;;;;;;;7.77;100.00;99814.03;5089623;28;20550;-80
2023/12/11 07:17:48;;;;;;;33.25;5.03;;;;;;;7.79;100.00;99828.66;5089992;28;20024;-81
2023/12/11 07:20:14;;;;;;;29.17;5.30;;;;;;;7.79;100.00;99820.88;5091127;28;20020;-81
2023/12/11 07:22:39;;;;;;;34.20;6.05;;;;;;;7.77;100.00;99811.41;5090749;28;20080;-80
2023/12/11 07:25:05;;;;;;;27.02;4.53;;;;;;;7.78;100.00;99824.34;5091030;28;20027;-81
2023/12/11 07:27:30;;;;;;;20.00;4.32;;;;;;;7.78;100.00;99823.50;5091864;28;20490;-80
2023/12/11 07:29:55;;;;;;;27.30;4.72;;;;;;;7.79;100.00;99835.59;5091625;28;20031;-80
2023/12/11 07:32:21;;;;;;;27.52;5.28;;;;;;;7.73;100.00;99836.59;5091228;28;20036;-80
2023/12/11 07:34:46;;;;;;;28.70;6.13;;;;;;;7.71;100.00;99838.38;5091882;28;20024;-80
2023/12/11 07:37:12;;;;;;;22.25;5.15;;;;;;;7.78;100.00;99834.72;5091354;28;20024;-80
2023/12/11 07:39:38;;;;;;;33.92;4.85;;;;;;;7.71;100.00;99849.59;5091343;28;20020;-80
2023/12/11 07:42:04;;;;;;;28.88;4.30;;;;;;;7.74;100.00;99859.91;5091916;28;20024;-80
2023/12/11 07:44:29;;;;;;;26.65;4.88;;;;;;;7.73;100.00;99863.41;5089932;28;20139;-80
2023/12/11 07:46:54;;;;;;;28.58;4.82;;;;;;;7.73;100.00;99872.94;5090827;28;20024;-80
2023/12/11 07:49:20;;;;;;;29.52;5.15;;;;;;;7.71;100.00;99878.13;5091352;28;20403;-80
2023/12/11 07:51:45;;;;;;;29.67;4.97;;;;;;;7.76;100.00;99892.75;5093666;28;20028;-80
2023/12/11 07:54:12;;;;;;;20.08;4.82;;;;;;;7.70;100.00;99889.41;5094185;28;20372;-80
2023/12/11 07:56:37;;;;;;;27.63;4.90;;;;;;;7.71;100.00;99895.47;5097832;28;20020;-80
2023/12/11 07:59:03;;;;;;;27.83;4.65;;;;;;;7.69;100.00;99898.09;5091352;28;20386;-80
2023/12/11 08:01:31;;;;;;;23.05;3.97;;;;;;;7.68;100.00;99901.59;5097371;28;20016;-80
2023/12/11 08:03:57;;;;;;;23.02;4.20;;;;;;;7.69;100.00;99908.47;5094429;28;20032;-80
2023/12/11 08:06:23;;;;;;;32.75;5.18;;;;;;;7.71;100.00;99926.59;5094300;28;20081;-80
2023/12/11 08:08:49;;;;;;;26.73;4.65;;;;;;;7.67;100.00;99910.25;5097903;28;20028;-81
2023/12/11 08:11:25;;;;;;;22.70;4.15;;;;;;;7.67;100.00;99910.25;5106330;28;20387;-81
2023/12/11 08:13:50;;;;;;;24.85;4.43;;;;;;;7.70;100.00;99917.13;5089886;28;20094;-81
2023/12/11 08:16:16;;;;;;;22.48;4.68;;;;;;;7.70;100.00;99924.91;5085443;28;20032;-82
2023/12/11 08:18:42;;;;;;;27.13;4.30;;;;;;;7.69;100.00;99929.25;5097631;28;20360;-81
2023/12/11 08:21:07;;;;;;;28.25;4.43;;;;;;;7.73;100.00;99933.44;5094983;28;20032;-80
2023/12/11 08:23:33;;;;;;;24.83;3.42;;;;;;;7.75;100.00;99943.81;5098137;28;20114;-81
2023/12/11 08:25:59;;;;;;;22.75;4.32;;;;;;;7.73;100.00;99936.03;5092022;28;20020;-80
2023/12/11 08:28:24;;;;;;;29.33;4.57;;;;;;;7.73;100.00;99933.44;5087660;28;20454;-81
2023/12/11 08:30:49;;;;;;;21.85;3.88;;;;;;;7.73;100.00;99948.16;5094452;28;20036;-81
2023/12/11 08:33:15;;;;;;;21.17;4.45;;;;;;;7.76;100.00;99939.47;5093576;28;20481;-81
2023/12/11 08:35:40;;;;;;;23.10;3.63;;;;;;;7.80;100.00;99930.69;5092514;28;20049;-81
2023/12/11 08:38:05;;;;;;;20.65;3.35;;;;;;;7.85;100.00;99950.44;5099004;28;20032;-80
2023/12/11 08:40:31;;;;;;;22.30;3.55;;;;;;;7.78;100.00;99946.28;5085854;28;20360;-81
2023/12/11 08:42:57;;;;;;;16.23;3.35;;;;;;;7.85;100.00;99960.81;5093284;28;20075;-80
2023/12/11 08:45:23;;;;;;;15.25;3.63;;;;;;;7.87;100.00;99958.19;5094210;28;20031;-81
2023/12/11 08:47:48;;;;;;;15.85;3.38;;;;;;;7.91;100.00;99967.56;5091671;28;20068;-81
2023/12/11 08:50:14;;;;;;;19.90;3.70;;;;;;;7.93;100.00;99955.44;5096271;28;20066;-81
2023/12/11 08:52:41;;;;;;;19.92;3.50;;;;;;;7.95;100.00;99977.84;5093106;28;20035;-80
2023/12/11 08:55:07;;;;;;;23.58;4.75;;;;;;;7.98;100.00;99966.56;5094221;28;20078;-80
2023/12/11 08:57:34;;;;;;;21.88;4.03;;;;;;;7.94;100.00;99977.88;5099196;28;20019;-80
2023/12/11 08:59:59;;;;;;;19.80;4.15;;;;;;;8.01;100.00;99991.53;5093949;28;20399;-80
2023/12/11 09:02:24;;;;;;;19.27;2.80;;;;;;;7.96;100.00;100010.69;5097658;28;20020;-80
2023/12/11 09:04:50;;;;;;;22.70;3.60;;;;;;;7.95;100.00;100019.38;5096139;28;20463;-79
2023/12/11 09:07:15;;;;;;;24.33;4.30;;;;;;;7.91;100.00;100019.47;5093682;28;20103;-80
2023/12/11 09:09:40;;;;;;;16.77;4.50;;;;;;;7.96;100.00;100030.63;5096173;28;20036;-80
2023/12/11 09:12:06;;;;;;;20.85;4.30;;;;;;;7.94;100.00;100034.97;5092225;28;20032;-79
2023/12/11 09:14:33;;;;;;;19.67;3.92;;;;;;;7.91;100.00;100064.47;5099647;28;20398;-79
2023/12/11 09:16:59;;;;;;;30.73;4.13;;;;;;;7.88;100.00;100061.09;5095923;28;20064;-80
2023/12/11 09:19:24;;;;;;;22.15;3.70;;;;;;;7.85;100.00;100064.63;5095670;28;20429;-80
2023/12/11 09:21:49;;;;;;;22.20;3.83;;;;;;;7.86;100.00;100070.66;5092056;28;20103;-80
2023/12/11 09:24:15;;;;;;;19.02;4.63;;;;;;;7.81;100.00;100062.97;5089999;28;20024;-79
2023/12/11 09:26:41;;;;;;;23.25;4.30;;;;;;;7.81;100.00;100068.16;5098486;28;20516;-80
2023/12/11 09:29:06;;;;;;;22.10;3.97;;;;;;;7.79;100.00;100075.16;5089547;28;20027;-80
2023/12/11 09:31:31;;;;;;;20.92;4.18;;;;;;;7.76;100.00;100088.19;5098757;28;20035;-80
2023/12/11 09:33:57;;;;;;;18.33;2.88;;;;;;;7.70;100.00;100081.41;5092862;28;20016;-79
2023/12/11 09:36:22;;;;;;;10.35;2.50;;;;;;;7.68;100.00;100090.09;5094442;28;20047;-80
2023/12/11 09:38:47;;;;;;;17.77;3.40;;;;;;;7.65;100.00;100103.16;5096127;28;20066;-80
2023/12/11 09:41:13;;;;;;;16.92;2.70;;;;;;;7.62;100.00;100096.31;5096230;28;20103;-79
2023/12/11 09:43:39;;;;;;;12.27;2.67;;;;;;;7.65;100.00;100098.84;5094451;28;20115;-80
2023/12/11 09:46:11;;;;;;;17.10;3.20;;;;;;;7.71;100.00;100108.19;5094350;28;20471;-80
2023/12/11 09:48:37;;;;;;;19.75;3.70;;;;;;;7.77;100.00;100109.81;5092931;28;20053;-79
2023/12/11 09:51:03;;;;;;;13.80;3.42;;;;;;;7.77;100.00;100113.25;5092605;28;20391;-80
2023/12/11 09:53:30;;;;;;;14.68;3.28;;;;;;;7.77;100.00;100117.59;5092806;28;20044;-79
2023/12/11 09:55:56;;;;;;;20.33;3.72;;;;;;;7.77;100.00;100123.63;5094745;28;20038;-79
2023/12/11 09:58:22;;;;;;;17.90;3.97;;;;;;;7.81;100.00;100140.81;5093082;28;20032;-79
2023/12/11 10:00:48;;;;;;;12.82;3.42;;;;;;;7.92;100.00;100148.38;5091451;28;20027;-79
2023/12/11 10:03:15;;;;;;;16.35;3.50;;;;;;;7.98;100.00;100130.06;5091932;28;20028;-79
2023/12/11 10:05:41;;;;;;;16.85;3.30;;;;;;;8.14;100.00;100157.38;5099783;28;20039;-79
2023/12/11 10:08:06;;;;;;;18.67;3.00;;;;;;;8.18;100.00;100145.16;5093050;28;20494;-79
2023/12/11 10:10:33;;;;;;;18.48;4.03;;;;;;;8.21;100.00;100143.34;5092389;28;20031;-79
2023/12/11 10:13:00;;;;;;;22.35;3.80;;;;;;;8.28;100.00;100162.22;5091195;28;20036;-79
2023/12/11 10:15:31;;;;;;;17.92;3.47;;;;;;;8.32;100.00;100165.59;5094762;28;20028;-80
2023/12/11 10:18:09;;;;;;;15.48;3.25;;;;;;;8.33;100.00;100164.69;5096902;28;20074;-79
2023/12/11 10:20:37;;;;;;;14.27;3.10;;;;;;;8.31;100.00;100175.13;5098608;28;20024;-79
2023/12/11 10:23:12;;;;;;;21.30;3.35;;;;;;;8.36;100.00;100177.59;5099408;28;20016;-79
2023/12/11 10:25:40;;;;;;;12.23;3.08;;;;;;;8.32;100.00;100173.38;5090129;28;20461;-79
2023/12/11 10:28:08;;;;;;;12.23;2.72;;;;;;;8.35;100.00;100181.94;5089315;28;20024;-79
2023/12/11 10:30:54;;;;;;;12.38;3.10;;;;;;;8.37;100.00;100179.28;5097887;28;20360;-84
2023/12/11 10:33:20;;;;;;;16.20;3.00;;;;;;;8.33;100.00;100191.50;5093422;28;20035;-79
2023/12/11 10:35:46;;;;;;;10.38;2.20;;;;;;;8.31;100.00;100187.25;5092234;28;20024;-79
2023/12/11 10:38:25;;;;;;;19.08;3.05;;;;;;;8.31;100.00;100193.31;5091965;28;20020;-79
2023/12/11 10:40:52;;;;;;;11.98;2.70;;;;;;;8.29;100.00;100199.41;5090960;28;20447;-79
2023/12/11 10:43:18;;;;;;;16.33;2.78;;;;;;;8.29;100.00;100199.41;5091513;28;20807;-79
2023/12/11 10:45:46;;;;;;;13.77;2.78;;;;;;;8.16;100.00;100199.72;5093471;28;20115;-79
2023/12/11 10:48:11;;;;;;;11.25;2.90;;;;;;;8.25;100.00;100203.00;5089658;28;20020;-79
2023/12/11 10:50:37;;;;;;;15.30;2.63;;;;;;;8.38;100.00;100214.81;5099005;28;20379;-79
2023/12/11 10:53:05;;;;;;;17.45;3.17;;;;;;;8.44;100.00;100212.06;5091000;28;20514;-79
2023/12/11 10:55:32;;;;;;;15.63;2.92;;;;;;;8.59;100.00;100213.41;5090248;28;20039;-80
2023/12/11 10:57:58;;;;;;;13.45;3.22;;;;;;;8.81;100.00;100224.97;5086759;28;20049;-79
2023/12/11 11:00:24;;;;;;;13.98;2.70;;;;;;;8.91;100.00;100228.19;5091969;28;20136;-79
2023/12/11 11:02:53;;;;;;;12.93;2.63;;;;;;;9.02;100.00;100218.34;5091578;28;20023;-80
2023/12/11 11:05:20;;;;;;;11.93;2.78;;;;;;;9.03;100.00;100237.41;5092382;28;20032;-79
2023/12/11 11:08:26;;;;;;;13.60;2.88;;;;;;;9.14;100.00;100233.63;5095264;28;20476;-79
2023/12/11 11:11:23;;;;;;;11.65;2.58;;;;;;;9.26;100.00;100231.59;5088342;28;20047;-79
2023/12/11 11:14:23;;;;;;;14.05;2.22;;;;;;;9.35;100.00;100237.41;5088388;28;20024;-79
2023/12/11 11:16:52;;;;;;;11.70;2.53;;;;;;;9.31;100.00;100243.56;5093445;28;20463;-78
2023/12/11 11:19:18;;;;;;;12.43;2.33;;;;;;;9.30;100.00;100248.81;5102202;28;20040;-80